sensor_id;sensor_type;location;lat;lon;timestamp;temperature;humidity
20862;DHT22;10591;52.532;13.348;2022-10-31T00:00:33;13.26;88.55
20862;DHT22;10591;52.532;13.348;2022-10-31T00:03:04;13.24;88.56
20862;DHT22;10591;52.532;13.348;2022-10-31T00:05:34;13.24;88.58
20862;DHT22;10591;52.532;13.348;2022-10-31T00:08:05;13.20;88.60
20862;DHT22;10591;52.532;13.348;2022-10-31T00:10:41;13.18;88.60
20862;DHT22;10591;52.532;13.348;2022-10-31T00:13:13;13.14;88.68
20862;DHT22;10591;52.532;13.348;2022-10-31T00:15:44;13.14;88.70
20862;DHT22;10591;52.532;13.348;2022-10-31T00:18:16;13.12;88.77
20862;DHT22;10591;52.532;13.348;2022-10-31T00:20:48;13.10;88.85
20862;DHT22;10591;52.532;13.348;2022-10-31T00:23:18;13.09;88.96
20862;DHT22;10591;52.532;13.348;2022-10-31T00:25:48;13.14;88.82
20862;DHT22;10591;52.532;13.348;2022-10-31T00:28:19;13.05;88.86
20862;DHT22;10591;52.532;13.348;2022-10-31T00:30:49;13.06;88.84
20862;DHT22;10591;52.532;13.348;2022-10-31T00:33:20;13.03;88.88
20862;DHT22;10591;52.532;13.348;2022-10-31T00:35:51;13.01;88.92
20862;DHT22;10591;52.532;13.348;2022-10-31T00:38:21;13.00;88.87
20862;DHT22;10591;52.532;13.348;2022-10-31T00:40:52;13.02;88.87
20862;DHT22;10591;52.532;13.348;2022-10-31T00:43:22;12.98;88.91
20862;DHT22;10591;52.532;13.348;2022-10-31T00:45:53;12.94;88.95
20862;DHT22;10591;52.532;13.348;2022-10-31T00:48:23;13.00;88.94
20862;DHT22;10591;52.532;13.348;2022-10-31T00:50:54;12.94;88.95
20862;DHT22;10591;52.532;13.348;2022-10-31T00:53:24;12.93;88.97
20862;DHT22;10591;52.532;13.348;2022-10-31T00:55:55;12.92;88.99
20862;DHT22;10591;52.532;13.348;2022-10-31T00:58:25;12.91;88.99
20862;DHT22;10591;52.532;13.348;2022-10-31T01:00:55;12.98;88.89
20862;DHT22;10591;52.532;13.348;2022-10-31T01:03:29;12.91;89.03
20862;DHT22;10591;52.532;13.348;2022-10-31T01:06:08;12.88;89.00
20862;DHT22;10591;52.532;13.348;2022-10-31T01:08:39;12.87;89.07
20862;DHT22;10591;52.532;13.348;2022-10-31T01:11:21;12.92;88.98
20862;DHT22;10591;52.532;13.348;2022-10-31T01:13:46;12.91;89.01
20862;DHT22;10591;52.532;13.348;2022-10-31T01:16:18;12.89;88.98
20862;DHT22;10591;52.532;13.348;2022-10-31T01:18:49;12.90;89.00
20862;DHT22;10591;52.532;13.348;2022-10-31T01:21:22;12.86;88.97
20862;DHT22;10591;52.532;13.348;2022-10-31T01:23:54;12.87;89.02
20862;DHT22;10591;52.532;13.348;2022-10-31T01:26:28;12.86;89.02
20862;DHT22;10591;52.532;13.348;2022-10-31T01:29:06;12.83;89.06
20862;DHT22;10591;52.532;13.348;2022-10-31T01:31:38;12.84;89.01
20862;DHT22;10591;52.532;13.348;2022-10-31T01:34:14;12.83;88.99
20862;DHT22;10591;52.532;13.348;2022-10-31T01:36:45;12.79;89.05
20862;DHT22;10591;52.532;13.348;2022-10-31T01:39:18;12.80;89.09
20862;DHT22;10591;52.532;13.348;2022-10-31T01:41:52;12.80;89.10
20862;DHT22;10591;52.532;13.348;2022-10-31T01:49:40;12.74;89.13
20862;DHT22;10591;52.532;13.348;2022-10-31T01:52:20;12.72;89.16
20862;DHT22;10591;52.532;13.348;2022-10-31T01:54:55;12.74;89.10
20862;DHT22;10591;52.532;13.348;2022-10-31T01:57:22;12.76;88.99
20862;DHT22;10591;52.532;13.348;2022-10-31T01:59:55;12.72;88.99
20862;DHT22;10591;52.532;13.348;2022-10-31T02:02:27;12.68;89.04
20862;DHT22;10591;52.532;13.348;2022-10-31T02:05:01;12.69;89.09
20862;DHT22;10591;52.532;13.348;2022-10-31T02:07:55;12.69;89.11
20862;DHT22;10591;52.532;13.348;2022-10-31T02:10:11;12.66;89.10
20862;DHT22;10591;52.532;13.348;2022-10-31T02:12:41;12.65;89.12
20862;DHT22;10591;52.532;13.348;2022-10-31T02:15:12;12.61;89.14
20862;DHT22;10591;52.532;13.348;2022-10-31T02:17:42;12.58;89.18
20862;DHT22;10591;52.532;13.348;2022-10-31T02:20:20;12.60;89.17
20862;DHT22;10591;52.532;13.348;2022-10-31T02:23:17;12.57;89.21
20862;DHT22;10591;52.532;13.348;2022-10-31T02:31:42;12.51;89.21
20862;DHT22;10591;52.532;13.348;2022-10-31T02:34:34;12.52;89.16
20862;DHT22;10591;52.532;13.348;2022-10-31T02:37:16;12.53;89.16
20862;DHT22;10591;52.532;13.348;2022-10-31T02:39:59;12.50;89.14
20862;DHT22;10591;52.532;13.348;2022-10-31T02:42:34;12.46;89.19
20862;DHT22;10591;52.532;13.348;2022-10-31T02:48:03;12.42;89.23
20862;DHT22;10591;52.532;13.348;2022-10-31T02:50:34;12.40;89.18
20862;DHT22;10591;52.532;13.348;2022-10-31T02:53:06;12.38;89.26
20862;DHT22;10591;52.532;13.348;2022-10-31T02:58:13;12.36;89.16
20862;DHT22;10591;52.532;13.348;2022-10-31T03:06:20;12.32;89.20
20862;DHT22;10591;52.532;13.348;2022-10-31T03:08:58;12.34;89.18
20862;DHT22;10591;52.532;13.348;2022-10-31T03:11:26;12.36;89.17
20862;DHT22;10591;52.532;13.348;2022-10-31T03:14:00;12.31;89.20
20862;DHT22;10591;52.532;13.348;2022-10-31T03:16:50;12.33;89.18
20862;DHT22;10591;52.532;13.348;2022-10-31T03:19:29;12.30;89.20
20862;DHT22;10591;52.532;13.348;2022-10-31T03:22:03;12.30;89.20
20862;DHT22;10591;52.532;13.348;2022-10-31T03:24:36;12.38;89.08
20862;DHT22;10591;52.532;13.348;2022-10-31T03:27:09;12.38;89.04
20862;DHT22;10591;52.532;13.348;2022-10-31T03:29:42;12.42;88.91
20862;DHT22;10591;52.532;13.348;2022-10-31T03:32:17;12.42;88.91
20862;DHT22;10591;52.532;13.348;2022-10-31T03:34:47;12.44;88.83
20862;DHT22;10591;52.532;13.348;2022-10-31T03:37:20;12.50;88.57
20862;DHT22;10591;52.532;13.348;2022-10-31T03:39:51;12.50;88.43
20862;DHT22;10591;52.532;13.348;2022-10-31T03:42:24;12.50;88.47
20862;DHT22;10591;52.532;13.348;2022-10-31T03:47:38;12.50;88.31
20862;DHT22;10591;52.532;13.348;2022-10-31T03:50:10;12.51;88.16
20862;DHT22;10591;52.532;13.348;2022-10-31T03:52:45;12.54;88.19
20862;DHT22;10591;52.532;13.348;2022-10-31T03:58:02;12.58;87.80
20862;DHT22;10591;52.532;13.348;2022-10-31T04:00:34;12.59;87.76
20862;DHT22;10591;52.532;13.348;2022-10-31T04:03:10;12.62;87.60
20862;DHT22;10591;52.532;13.348;2022-10-31T04:05:43;12.62;87.58
20862;DHT22;10591;52.532;13.348;2022-10-31T04:08:17;12.58;87.66
20862;DHT22;10591;52.532;13.348;2022-10-31T04:10:49;12.54;87.73
20862;DHT22;10591;52.532;13.348;2022-10-31T04:13:24;12.54;87.72
20862;DHT22;10591;52.532;13.348;2022-10-31T04:15:55;12.51;87.78
20862;DHT22;10591;52.532;13.348;2022-10-31T04:18:26;12.50;87.84
20862;DHT22;10591;52.532;13.348;2022-10-31T04:21:01;12.52;87.85
20862;DHT22;10591;52.532;13.348;2022-10-31T04:23:34;12.50;87.97
20862;DHT22;10591;52.532;13.348;2022-10-31T04:26:04;12.48;87.92
20862;DHT22;10591;52.532;13.348;2022-10-31T04:28:35;12.47;87.94
20862;DHT22;10591;52.532;13.348;2022-10-31T04:31:06;12.48;87.76
20862;DHT22;10591;52.532;13.348;2022-10-31T04:33:36;12.44;87.81
20862;DHT22;10591;52.532;13.348;2022-10-31T04:36:06;12.40;87.81
20862;DHT22;10591;52.532;13.348;2022-10-31T04:38:37;12.41;87.81
20862;DHT22;10591;52.532;13.348;2022-10-31T04:41:07;12.42;87.77
20862;DHT22;10591;52.532;13.348;2022-10-31T04:43:38;12.46;87.59
20862;DHT22;10591;52.532;13.348;2022-10-31T04:46:08;12.47;87.64
20862;DHT22;10591;52.532;13.348;2022-10-31T04:48:38;12.48;87.57
20862;DHT22;10591;52.532;13.348;2022-10-31T04:51:09;12.45;87.61
20862;DHT22;10591;52.532;13.348;2022-10-31T04:53:39;12.42;87.67
20862;DHT22;10591;52.532;13.348;2022-10-31T04:56:10;12.39;87.71
20862;DHT22;10591;52.532;13.348;2022-10-31T04:58:40;12.36;87.84
20862;DHT22;10591;52.532;13.348;2022-10-31T05:01:11;12.40;87.85
20862;DHT22;10591;52.532;13.348;2022-10-31T05:03:41;12.34;87.98
20862;DHT22;10591;52.532;13.348;2022-10-31T05:06:12;12.32;88.01
20862;DHT22;10591;52.532;13.348;2022-10-31T05:08:42;12.34;88.02
20862;DHT22;10591;52.532;13.348;2022-10-31T05:11:12;12.32;88.09
20862;DHT22;10591;52.532;13.348;2022-10-31T05:13:43;12.27;88.23
20862;DHT22;10591;52.532;13.348;2022-10-31T05:16:13;12.24;88.32
20862;DHT22;10591;52.532;13.348;2022-10-31T05:18:44;12.24;88.32
20862;DHT22;10591;52.532;13.348;2022-10-31T05:21:14;12.22;88.38
20862;DHT22;10591;52.532;13.348;2022-10-31T05:23:45;12.21;88.45
20862;DHT22;10591;52.532;13.348;2022-10-31T05:26:17;12.20;88.44
20862;DHT22;10591;52.532;13.348;2022-10-31T05:28:47;12.22;88.52
20862;DHT22;10591;52.532;13.348;2022-10-31T05:31:18;12.22;88.45
20862;DHT22;10591;52.532;13.348;2022-10-31T05:33:48;12.16;88.39
20862;DHT22;10591;52.532;13.348;2022-10-31T05:36:20;12.33;88.07
20862;DHT22;10591;52.532;13.348;2022-10-31T05:38:50;12.24;88.16
20862;DHT22;10591;52.532;13.348;2022-10-31T05:41:21;12.20;88.13
20862;DHT22;10591;52.532;13.348;2022-10-31T05:43:51;12.20;88.15
20862;DHT22;10591;52.532;13.348;2022-10-31T05:46:22;12.23;88.18
20862;DHT22;10591;52.532;13.348;2022-10-31T05:48:52;12.19;88.16
20862;DHT22;10591;52.532;13.348;2022-10-31T05:51:24;12.18;88.26
20862;DHT22;10591;52.532;13.348;2022-10-31T05:53:55;12.16;88.25
20862;DHT22;10591;52.532;13.348;2022-10-31T05:56:25;12.20;88.35
20862;DHT22;10591;52.532;13.348;2022-10-31T05:58:56;12.19;88.49
20862;DHT22;10591;52.532;13.348;2022-10-31T06:01:26;12.16;88.48
20862;DHT22;10591;52.532;13.348;2022-10-31T06:03:57;12.23;88.36
20862;DHT22;10591;52.532;13.348;2022-10-31T06:06:27;12.22;88.18
20862;DHT22;10591;52.532;13.348;2022-10-31T06:08:57;12.22;88.18
20862;DHT22;10591;52.532;13.348;2022-10-31T06:11:28;12.17;88.17
20862;DHT22;10591;52.532;13.348;2022-10-31T06:13:58;12.22;88.18
20862;DHT22;10591;52.532;13.348;2022-10-31T06:16:29;12.20;88.19
20862;DHT22;10591;52.532;13.348;2022-10-31T06:18:59;12.21;88.20
20862;DHT22;10591;52.532;13.348;2022-10-31T06:21:30;12.18;88.22
20862;DHT22;10591;52.532;13.348;2022-10-31T06:24:00;12.25;88.22
20862;DHT22;10591;52.532;13.348;2022-10-31T06:26:30;12.26;88.14
20862;DHT22;10591;52.532;13.348;2022-10-31T06:29:02;12.28;88.02
20862;DHT22;10591;52.532;13.348;2022-10-31T06:31:33;12.37;87.89
20862;DHT22;10591;52.532;13.348;2022-10-31T06:34:03;12.40;87.76
20862;DHT22;10591;52.532;13.348;2022-10-31T06:36:34;12.42;87.79
20862;DHT22;10591;52.532;13.348;2022-10-31T06:39:04;12.41;87.70
20862;DHT22;10591;52.532;13.348;2022-10-31T06:41:35;12.41;87.58
20862;DHT22;10591;52.532;13.348;2022-10-31T06:44:06;12.59;87.29
20862;DHT22;10591;52.532;13.348;2022-10-31T06:46:37;12.42;87.40
20862;DHT22;10591;52.532;13.348;2022-10-31T06:49:07;12.46;87.41
20862;DHT22;10591;52.532;13.348;2022-10-31T06:51:38;12.47;87.34
20862;DHT22;10591;52.532;13.348;2022-10-31T06:54:08;12.48;87.36
20862;DHT22;10591;52.532;13.348;2022-10-31T06:56:39;12.51;87.35
20862;DHT22;10591;52.532;13.348;2022-10-31T06:59:09;12.58;87.34
20862;DHT22;10591;52.532;13.348;2022-10-31T07:01:40;12.87;86.82
20862;DHT22;10591;52.532;13.348;2022-10-31T07:04:10;13.04;86.25
20862;DHT22;10591;52.532;13.348;2022-10-31T07:06:41;12.87;86.44
20862;DHT22;10591;52.532;13.348;2022-10-31T07:09:13;13.20;85.53
20862;DHT22;10591;52.532;13.348;2022-10-31T07:11:43;13.15;85.61
20862;DHT22;10591;52.532;13.348;2022-10-31T07:14:14;13.29;85.67
20862;DHT22;10591;52.532;13.348;2022-10-31T07:16:47;13.56;85.19
20862;DHT22;10591;52.532;13.348;2022-10-31T07:19:17;13.62;84.86
20862;DHT22;10591;52.532;13.348;2022-10-31T07:21:48;13.69;84.69
20862;DHT22;10591;52.532;13.348;2022-10-31T07:24:18;13.76;84.27
20862;DHT22;10591;52.532;13.348;2022-10-31T07:26:48;13.97;83.21
20862;DHT22;10591;52.532;13.348;2022-10-31T07:29:19;14.13;83.54
20862;DHT22;10591;52.532;13.348;2022-10-31T07:31:49;13.98;83.30
20862;DHT22;10591;52.532;13.348;2022-10-31T07:34:20;14.10;83.09
20862;DHT22;10591;52.532;13.348;2022-10-31T07:36:51;13.99;83.46
20862;DHT22;10591;52.532;13.348;2022-10-31T07:39:22;14.00;83.58
20862;DHT22;10591;52.532;13.348;2022-10-31T07:41:52;14.29;83.18
20862;DHT22;10591;52.532;13.348;2022-10-31T07:44:22;14.19;83.36
20862;DHT22;10591;52.532;13.348;2022-10-31T07:46:53;14.34;83.03
20862;DHT22;10591;52.532;13.348;2022-10-31T07:49:23;14.30;83.35
20862;DHT22;10591;52.532;13.348;2022-10-31T07:51:55;14.15;83.52
20862;DHT22;10591;52.532;13.348;2022-10-31T07:54:25;14.19;83.60
20862;DHT22;10591;52.532;13.348;2022-10-31T07:56:56;14.26;83.32
20862;DHT22;10591;52.532;13.348;2022-10-31T07:59:26;14.09;83.73
20862;DHT22;10591;52.532;13.348;2022-10-31T08:01:57;14.10;83.77
20862;DHT22;10591;52.532;13.348;2022-10-31T08:04:27;14.06;83.80
20862;DHT22;10591;52.532;13.348;2022-10-31T08:06:58;14.20;83.87
20862;DHT22;10591;52.532;13.348;2022-10-31T08:09:28;14.16;83.91
20862;DHT22;10591;52.532;13.348;2022-10-31T08:11:58;14.36;83.36
20862;DHT22;10591;52.532;13.348;2022-10-31T08:14:30;14.52;83.33
20862;DHT22;10591;52.532;13.348;2022-10-31T08:17:01;14.52;82.60
20862;DHT22;10591;52.532;13.348;2022-10-31T08:19:31;14.32;82.95
20862;DHT22;10591;52.532;13.348;2022-10-31T08:22:01;14.35;82.78
20862;DHT22;10591;52.532;13.348;2022-10-31T08:24:32;14.56;82.80
20862;DHT22;10591;52.532;13.348;2022-10-31T08:27:02;14.22;83.00
20862;DHT22;10591;52.532;13.348;2022-10-31T08:29:33;14.18;83.62
20862;DHT22;10591;52.532;13.348;2022-10-31T08:32:04;14.22;83.48
20862;DHT22;10591;52.532;13.348;2022-10-31T08:34:34;14.32;82.92
20862;DHT22;10591;52.532;13.348;2022-10-31T08:37:05;14.26;83.28
20862;DHT22;10591;52.532;13.348;2022-10-31T08:39:35;14.08;83.58
20862;DHT22;10591;52.532;13.348;2022-10-31T08:42:05;14.14;83.54
20862;DHT22;10591;52.532;13.348;2022-10-31T08:44:36;14.33;83.49
20862;DHT22;10591;52.532;13.348;2022-10-31T08:47:06;14.50;82.92
20862;DHT22;10591;52.532;13.348;2022-10-31T08:49:37;14.52;82.73
20862;DHT22;10591;52.532;13.348;2022-10-31T08:52:07;14.60;82.47
20862;DHT22;10591;52.532;13.348;2022-10-31T08:54:39;14.73;82.30
20862;DHT22;10591;52.532;13.348;2022-10-31T08:57:09;14.90;81.73
20862;DHT22;10591;52.532;13.348;2022-10-31T08:59:40;15.08;80.90
20862;DHT22;10591;52.532;13.348;2022-10-31T09:02:10;15.32;80.57
20862;DHT22;10591;52.532;13.348;2022-10-31T09:04:41;16.42;78.65
20862;DHT22;10591;52.532;13.348;2022-10-31T09:07:11;17.06;75.45
20862;DHT22;10591;52.532;13.348;2022-10-31T09:09:43;17.32;73.82
20862;DHT22;10591;52.532;13.348;2022-10-31T09:12:14;17.38;73.26
20862;DHT22;10591;52.532;13.348;2022-10-31T09:14:44;17.64;72.35
20862;DHT22;10591;52.532;13.348;2022-10-31T09:17:15;18.64;69.54
20862;DHT22;10591;52.532;13.348;2022-10-31T09:19:45;18.93;68.44
20862;DHT22;10591;52.532;13.348;2022-10-31T09:22:15;18.50;69.37
20862;DHT22;10591;52.532;13.348;2022-10-31T09:24:46;18.39;69.94
20862;DHT22;10591;52.532;13.348;2022-10-31T09:27:16;18.64;69.04
20862;DHT22;10591;52.532;13.348;2022-10-31T09:29:47;18.49;68.90
20862;DHT22;10591;52.532;13.348;2022-10-31T09:32:17;18.80;68.79
20862;DHT22;10591;52.532;13.348;2022-10-31T09:34:52;18.29;70.03
20862;DHT22;10591;52.532;13.348;2022-10-31T09:37:23;18.22;70.54
20862;DHT22;10591;52.532;13.348;2022-10-31T09:39:53;18.21;70.95
20862;DHT22;10591;52.532;13.348;2022-10-31T09:42:41;17.53;72.19
20862;DHT22;10591;52.532;13.348;2022-10-31T09:45:27;17.31;73.55
20862;DHT22;10591;52.532;13.348;2022-10-31T09:51:09;17.68;73.17
20862;DHT22;10591;52.532;13.348;2022-10-31T09:53:52;19.21;68.80
20862;DHT22;10591;52.532;13.348;2022-10-31T09:56:24;20.73;63.83
20862;DHT22;10591;52.532;13.348;2022-10-31T09:58:57;20.76;63.83
20862;DHT22;10591;52.532;13.348;2022-10-31T10:01:42;19.88;65.77
20862;DHT22;10591;52.532;13.348;2022-10-31T10:06:51;19.26;67.17
20862;DHT22;10591;52.532;13.348;2022-10-31T10:09:24;20.44;63.52
20862;DHT22;10591;52.532;13.348;2022-10-31T10:17:31;26.10;49.27
20862;DHT22;10591;52.532;13.348;2022-10-31T10:20:17;23.23;55.20
20862;DHT22;10591;52.532;13.348;2022-10-31T10:25:47;21.42;60.30
20862;DHT22;10591;52.532;13.348;2022-10-31T10:28:25;20.70;62.71
20862;DHT22;10591;52.532;13.348;2022-10-31T10:31:01;20.44;64.37
20862;DHT22;10591;52.532;13.348;2022-10-31T10:33:35;22.34;58.70
20862;DHT22;10591;52.532;13.348;2022-10-31T10:37:20;22.62;57.98
20862;DHT22;10591;52.532;13.348;2022-10-31T10:39:07;22.35;59.06
20862;DHT22;10591;52.532;13.348;2022-10-31T10:41:37;22.40;58.37
20862;DHT22;10591;52.532;13.348;2022-10-31T10:44:11;21.87;60.31
20862;DHT22;10591;52.532;13.348;2022-10-31T10:46:50;21.88;59.95
20862;DHT22;10591;52.532;13.348;2022-10-31T10:49:44;23.02;57.34
20862;DHT22;10591;52.532;13.348;2022-10-31T10:52:27;23.06;57.03
20862;DHT22;10591;52.532;13.348;2022-10-31T10:55:29;22.63;57.95
20862;DHT22;10591;52.532;13.348;2022-10-31T10:58:03;21.64;60.73
20862;DHT22;10591;52.532;13.348;2022-10-31T11:00:42;21.21;62.06
20862;DHT22;10591;52.532;13.348;2022-10-31T11:03:15;21.71;61.04
20862;DHT22;10591;52.532;13.348;2022-10-31T11:05:57;21.85;60.28
20862;DHT22;10591;52.532;13.348;2022-10-31T11:08:38;21.44;61.19
20862;DHT22;10591;52.532;13.348;2022-10-31T11:11:25;20.76;63.34
20862;DHT22;10591;52.532;13.348;2022-10-31T11:13:41;20.76;63.75
20862;DHT22;10591;52.532;13.348;2022-10-31T11:16:28;20.90;63.62
20862;DHT22;10591;52.532;13.348;2022-10-31T11:19:16;21.18;62.58
20862;DHT22;10591;52.532;13.348;2022-10-31T11:21:47;22.02;60.46
20862;DHT22;10591;52.532;13.348;2022-10-31T11:24:23;22.36;60.21
20862;DHT22;10591;52.532;13.348;2022-10-31T11:27:20;23.37;56.99
20862;DHT22;10591;52.532;13.348;2022-10-31T11:29:49;23.54;56.11
20862;DHT22;10591;52.532;13.348;2022-10-31T11:32:26;23.54;56.58
20862;DHT22;10591;52.532;13.348;2022-10-31T11:35:00;23.11;57.53
20862;DHT22;10591;52.532;13.348;2022-10-31T11:37:33;22.69;58.20
20862;DHT22;10591;52.532;13.348;2022-10-31T11:40:06;23.08;58.05
20862;DHT22;10591;52.532;13.348;2022-10-31T11:42:39;23.29;56.88
20862;DHT22;10591;52.532;13.348;2022-10-31T11:47:54;23.75;55.12
20862;DHT22;10591;52.532;13.348;2022-10-31T11:50:34;23.94;55.46
20862;DHT22;10591;52.532;13.348;2022-10-31T11:53:18;24.00;55.37
20862;DHT22;10591;52.532;13.348;2022-10-31T11:55:44;23.38;57.05
20862;DHT22;10591;52.532;13.348;2022-10-31T11:58:20;23.25;57.52
20862;DHT22;10591;52.532;13.348;2022-10-31T12:00:54;23.62;57.21
20862;DHT22;10591;52.532;13.348;2022-10-31T12:03:48;23.67;56.54
20862;DHT22;10591;52.532;13.348;2022-10-31T12:06:18;23.58;56.80
20862;DHT22;10591;52.532;13.348;2022-10-31T12:08:49;23.22;57.27
20862;DHT22;10591;52.532;13.348;2022-10-31T12:14:36;23.59;57.02
20862;DHT22;10591;52.532;13.348;2022-10-31T12:17:19;23.60;56.44
20862;DHT22;10591;52.532;13.348;2022-10-31T12:20:07;24.34;54.74
20862;DHT22;10591;52.532;13.348;2022-10-31T12:25:45;24.27;55.32
20862;DHT22;10591;52.532;13.348;2022-10-31T12:28:41;25.08;53.46
20862;DHT22;10591;52.532;13.348;2022-10-31T12:37:20;24.65;53.74
20862;DHT22;10591;52.532;13.348;2022-10-31T12:45:51;22.32;60.05
20862;DHT22;10591;52.532;13.348;2022-10-31T12:51:13;21.60;62.42
20862;DHT22;10591;52.532;13.348;2022-10-31T12:56:26;20.94;64.45
20862;DHT22;10591;52.532;13.348;2022-10-31T12:59:02;21.09;64.90
20862;DHT22;10591;52.532;13.348;2022-10-31T13:01:35;21.40;63.18
20862;DHT22;10591;52.532;13.348;2022-10-31T13:04:15;21.62;63.53
20862;DHT22;10591;52.532;13.348;2022-10-31T13:06:52;21.56;63.35
20862;DHT22;10591;52.532;13.348;2022-10-31T13:09:40;21.27;63.74
20862;DHT22;10591;52.532;13.348;2022-10-31T13:12:16;20.84;65.18
20862;DHT22;10591;52.532;13.348;2022-10-31T13:14:57;20.60;66.09
20862;DHT22;10591;52.532;13.348;2022-10-31T13:17:30;20.48;65.99
20862;DHT22;10591;52.532;13.348;2022-10-31T13:20:30;20.62;65.81
20862;DHT22;10591;52.532;13.348;2022-10-31T13:25:55;20.47;66.39
20862;DHT22;10591;52.532;13.348;2022-10-31T13:28:43;19.98;68.63
20862;DHT22;10591;52.532;13.348;2022-10-31T13:31:09;19.83;68.86
20862;DHT22;10591;52.532;13.348;2022-10-31T13:33:45;19.94;68.79
20862;DHT22;10591;52.532;13.348;2022-10-31T13:36:24;20.05;69.01
20862;DHT22;10591;52.532;13.348;2022-10-31T13:38:58;20.02;68.58
20862;DHT22;10591;52.532;13.348;2022-10-31T13:44:23;19.27;71.15
20862;DHT22;10591;52.532;13.348;2022-10-31T13:47:00;19.04;71.96
20862;DHT22;10591;52.532;13.348;2022-10-31T13:54:46;18.58;73.67
20862;DHT22;10591;52.532;13.348;2022-10-31T13:57:29;18.52;74.20
20862;DHT22;10591;52.532;13.348;2022-10-31T14:02:59;18.14;75.06
20862;DHT22;10591;52.532;13.348;2022-10-31T14:05:31;18.02;75.91
20862;DHT22;10591;52.532;13.348;2022-10-31T14:08:04;18.11;75.92
20862;DHT22;10591;52.532;13.348;2022-10-31T14:10:37;18.19;75.41
20862;DHT22;10591;52.532;13.348;2022-10-31T14:13:23;17.66;76.52
20862;DHT22;10591;52.532;13.348;2022-10-31T14:15:56;17.61;76.69
20862;DHT22;10591;52.532;13.348;2022-10-31T14:18:37;17.52;76.99
20862;DHT22;10591;52.532;13.348;2022-10-31T14:23:55;17.15;77.93
20862;DHT22;10591;52.532;13.348;2022-10-31T14:29:03;17.07;78.59
20862;DHT22;10591;52.532;13.348;2022-10-31T14:31:38;16.80;79.39
20862;DHT22;10591;52.532;13.348;2022-10-31T14:35:03;16.76;79.93
20862;DHT22;10591;52.532;13.348;2022-10-31T14:37:19;16.38;80.52
20862;DHT22;10591;52.532;13.348;2022-10-31T14:48:41;16.20;81.41
20862;DHT22;10591;52.532;13.348;2022-10-31T14:51:16;15.75;82.36
20862;DHT22;10591;52.532;13.348;2022-10-31T14:53:57;15.56;83.30
20862;DHT22;10591;52.532;13.348;2022-10-31T14:56:30;15.49;83.54
20862;DHT22;10591;52.532;13.348;2022-10-31T14:59:01;15.46;83.91
20862;DHT22;10591;52.532;13.348;2022-10-31T15:01:34;15.49;83.34
20862;DHT22;10591;52.532;13.348;2022-10-31T15:06:54;15.40;83.97
20862;DHT22;10591;52.532;13.348;2022-10-31T15:09:29;15.42;83.44
20862;DHT22;10591;52.532;13.348;2022-10-31T15:12:00;15.49;83.51
20862;DHT22;10591;52.532;13.348;2022-10-31T15:14:32;15.51;83.59
20862;DHT22;10591;52.532;13.348;2022-10-31T15:17:04;15.70;83.19
20862;DHT22;10591;52.532;13.348;2022-10-31T15:19:34;15.62;83.39
20862;DHT22;10591;52.532;13.348;2022-10-31T15:22:07;15.62;83.25
20862;DHT22;10591;52.532;13.348;2022-10-31T15:24:38;15.56;83.76
20862;DHT22;10591;52.532;13.348;2022-10-31T15:27:16;15.44;84.15
20862;DHT22;10591;52.532;13.348;2022-10-31T15:29:50;15.35;84.40
20862;DHT22;10591;52.532;13.348;2022-10-31T15:32:23;15.25;84.64
20862;DHT22;10591;52.532;13.348;2022-10-31T15:34:55;15.27;84.72
20862;DHT22;10591;52.532;13.348;2022-10-31T15:37:27;15.22;84.68
20862;DHT22;10591;52.532;13.348;2022-10-31T15:40:05;15.30;84.65
20862;DHT22;10591;52.532;13.348;2022-10-31T15:42:33;15.24;84.86
20862;DHT22;10591;52.532;13.348;2022-10-31T15:47:53;15.23;84.86
20862;DHT22;10591;52.532;13.348;2022-10-31T15:50:41;15.29;84.67
20862;DHT22;10591;52.532;13.348;2022-10-31T15:53:18;14.98;85.23
20862;DHT22;10591;52.532;13.348;2022-10-31T15:56:03;14.76;86.15
20862;DHT22;10591;52.532;13.348;2022-10-31T15:58:29;14.83;86.08
20862;DHT22;10591;52.532;13.348;2022-10-31T16:01:17;14.82;86.29
20862;DHT22;10591;52.532;13.348;2022-10-31T16:03:37;14.96;86.16
20862;DHT22;10591;52.532;13.348;2022-10-31T16:06:18;14.82;86.10
20862;DHT22;10591;52.532;13.348;2022-10-31T16:08:50;14.98;85.95
20862;DHT22;10591;52.532;13.348;2022-10-31T16:11:36;15.00;85.92
20862;DHT22;10591;52.532;13.348;2022-10-31T16:16:52;14.88;86.21
20862;DHT22;10591;52.532;13.348;2022-10-31T16:19:28;14.90;86.24
20862;DHT22;10591;52.532;13.348;2022-10-31T16:22:05;14.88;86.24
20862;DHT22;10591;52.532;13.348;2022-10-31T16:24:49;14.86;86.35
20862;DHT22;10591;52.532;13.348;2022-10-31T16:27:20;14.85;86.39
20862;DHT22;10591;52.532;13.348;2022-10-31T16:29:46;14.84;86.34
20862;DHT22;10591;52.532;13.348;2022-10-31T16:32:34;14.96;86.27
20862;DHT22;10591;52.532;13.348;2022-10-31T16:37:42;14.88;86.32
20862;DHT22;10591;52.532;13.348;2022-10-31T16:40:14;14.83;86.62
20862;DHT22;10591;52.532;13.348;2022-10-31T16:42:45;14.91;86.45
20862;DHT22;10591;52.532;13.348;2022-10-31T16:45:21;14.98;86.33
20862;DHT22;10591;52.532;13.348;2022-10-31T16:47:52;14.94;86.17
20862;DHT22;10591;52.532;13.348;2022-10-31T16:50:25;14.96;86.18
20862;DHT22;10591;52.532;13.348;2022-10-31T16:52:55;14.92;86.22
20862;DHT22;10591;52.532;13.348;2022-10-31T16:55:27;14.97;86.18
20862;DHT22;10591;52.532;13.348;2022-10-31T16:57:58;14.90;86.50
20862;DHT22;10591;52.532;13.348;2022-10-31T17:00:29;14.93;86.41
20862;DHT22;10591;52.532;13.348;2022-10-31T17:03:00;14.95;86.23
20862;DHT22;10591;52.532;13.348;2022-10-31T17:05:30;14.93;86.72
20862;DHT22;10591;52.532;13.348;2022-10-31T17:08:01;15.05;86.29
20862;DHT22;10591;52.532;13.348;2022-10-31T17:10:33;15.01;86.21
20862;DHT22;10591;52.532;13.348;2022-10-31T17:13:05;14.93;86.41
20862;DHT22;10591;52.532;13.348;2022-10-31T17:15:41;14.91;86.45
20862;DHT22;10591;52.532;13.348;2022-10-31T17:18:14;14.88;86.56
20862;DHT22;10591;52.532;13.348;2022-10-31T17:20:45;14.88;86.42
20862;DHT22;10591;52.532;13.348;2022-10-31T17:23:16;14.87;86.68
20862;DHT22;10591;52.532;13.348;2022-10-31T17:25:47;14.89;86.78
20862;DHT22;10591;52.532;13.348;2022-10-31T17:28:17;14.86;86.86
20862;DHT22;10591;52.532;13.348;2022-10-31T17:30:47;14.82;87.00
20862;DHT22;10591;52.532;13.348;2022-10-31T17:33:18;14.84;86.91
20862;DHT22;10591;52.532;13.348;2022-10-31T17:35:48;14.83;86.95
20862;DHT22;10591;52.532;13.348;2022-10-31T17:38:20;14.80;87.09
20862;DHT22;10591;52.532;13.348;2022-10-31T17:40:50;14.82;87.04